sensor_id;sensor_type;location;lat;lon;timestamp;P1;durP1;ratioP1;P2;durP2;ratioP2
23578;SDS011;11967;50.852;4.400;2024-01-16T00:00:47;18.38;;;5.88;;
23578;SDS011;11967;50.852;4.400;2024-01-16T00:03:13;16.98;;;5.60;;
23578;SDS011;11967;50.852;4.400;2024-01-16T00:05:39;16.13;;;4.82;;
23578;SDS011;11967;50.852;4.400;2024-01-16T00:08:05;15.00;;;4.55;;
23578;SDS011;11967;50.852;4.400;2024-01-16T00:10:30;16.95;;;5.07;;
23578;SDS011;11967;50.852;4.400;2024-01-16T00:12:56;16.17;;;5.10;;
23578;SDS011;11967;50.852;4.400;2024-01-16T00:15:22;19.00;;;5.72;;
23578;SDS011;11967;50.852;4.400;2024-01-16T00:17:47;17.40;;;5.80;;
23578;SDS011;11967;50.852;4.400;2024-01-16T00:20:13;18.17;;;6.00;;
23578;SDS011;11967;50.852;4.400;2024-01-16T00:22:39;15.73;;;5.95;;
23578;SDS011;11967;50.852;4.400;2024-01-16T00:25:04;21.05;;;6.55;;
23578;SDS011;11967;50.852;4.400;2024-01-16T00:27:31;22.88;;;6.55;;
23578;SDS011;11967;50.852;4.400;2024-01-16T00:29:56;18.60;;;6.97;;
23578;SDS011;11967;50.852;4.400;2024-01-16T00:32:22;23.85;;;6.78;;
23578;SDS011;11967;50.852;4.400;2024-01-16T00:34:47;19.25;;;7.10;;
23578;SDS011;11967;50.852;4.400;2024-01-16T00:37:13;19.77;;;7.07;;
23578;SDS011;11967;50.852;4.400;2024-01-16T00:39:38;21.17;;;6.75;;
23578;SDS011;11967;50.852;4.400;2024-01-16T00:42:04;18.52;;;7.05;;
23578;SDS011;11967;50.852;4.400;2024-01-16T00:44:30;15.55;;;6.93;;
23578;SDS011;11967;50.852;4.400;2024-01-16T00:46:56;21.70;;;6.80;;
23578;SDS011;11967;50.852;4.400;2024-01-16T00:49:22;18.70;;;6.35;;
23578;SDS011;11967;50.852;4.400;2024-01-16T00:51:49;18.52;;;6.78;;
23578;SDS011;11967;50.852;4.400;2024-01-16T00:54:14;17.25;;;6.45;;
23578;SDS011;11967;50.852;4.400;2024-01-16T00:56:41;15.07;;;6.13;;
23578;SDS011;11967;50.852;4.400;2024-01-16T00:59:07;16.38;;;6.43;;
23578;SDS011;11967;50.852;4.400;2024-01-16T01:01:32;16.58;;;5.75;;
23578;SDS011;11967;50.852;4.400;2024-01-16T01:03:58;19.48;;;5.85;;
23578;SDS011;11967;50.852;4.400;2024-01-16T01:06:24;18.23;;;5.85;;
23578;SDS011;11967;50.852;4.400;2024-01-16T01:08:49;18.73;;;6.35;;
23578;SDS011;11967;50.852;4.400;2024-01-16T01:11:16;20.58;;;5.90;;
23578;SDS011;11967;50.852;4.400;2024-01-16T01:13:41;16.45;;;5.88;;
23578;SDS011;11967;50.852;4.400;2024-01-16T01:16:07;17.02;;;6.10;;
23578;SDS011;11967;50.852;4.400;2024-01-16T01:18:34;22.15;;;7.03;;
23578;SDS011;11967;50.852;4.400;2024-01-16T01:21:01;16.83;;;6.78;;
23578;SDS011;11967;50.852;4.400;2024-01-16T01:23:26;15.02;;;5.95;;
23578;SDS011;11967;50.852;4.400;2024-01-16T01:25:52;17.55;;;7.05;;
23578;SDS011;11967;50.852;4.400;2024-01-16T01:28:18;14.73;;;6.95;;
23578;SDS011;11967;50.852;4.400;2024-01-16T01:30:43;20.08;;;6.75;;
23578;SDS011;11967;50.852;4.400;2024-01-16T01:33:09;16.92;;;6.53;;
23578;SDS011;11967;50.852;4.400;2024-01-16T01:35:36;16.73;;;6.55;;
23578;SDS011;11967;50.852;4.400;2024-01-16T01:38:02;16.63;;;7.05;;
23578;SDS011;11967;50.852;4.400;2024-01-16T01:40:28;12.80;;;6.43;;
23578;SDS011;11967;50.852;4.400;2024-01-16T01:42:53;14.65;;;6.32;;
23578;SDS011;11967;50.852;4.400;2024-01-16T01:45:19;16.67;;;6.65;;
23578;SDS011;11967;50.852;4.400;2024-01-16T01:47:44;19.15;;;6.75;;
23578;SDS011;11967;50.852;4.400;2024-01-16T01:50:11;18.13;;;6.72;;
23578;SDS011;11967;50.852;4.400;2024-01-16T01:52:39;15.73;;;6.40;;
23578;SDS011;11967;50.852;4.400;2024-01-16T01:55:06;16.05;;;6.00;;
23578;SDS011;11967;50.852;4.400;2024-01-16T01:57:36;14.50;;;6.05;;
23578;SDS011;11967;50.852;4.400;2024-01-16T02:00:02;17.92;;;6.38;;
23578;SDS011;11967;50.852;4.400;2024-01-16T02:02:29;14.93;;;6.50;;
23578;SDS011;11967;50.852;4.400;2024-01-16T02:04:56;20.02;;;6.18;;
23578;SDS011;11967;50.852;4.400;2024-01-16T02:07:22;16.45;;;6.50;;
23578;SDS011;11967;50.852;4.400;2024-01-16T02:09:48;14.35;;;5.90;;
23578;SDS011;11967;50.852;4.400;2024-01-16T02:12:14;20.08;;;6.57;;
23578;SDS011;11967;50.852;4.400;2024-01-16T02:14:40;20.10;;;6.10;;
23578;SDS011;11967;50.852;4.400;2024-01-16T02:17:06;20.88;;;5.93;;
23578;SDS011;11967;50.852;4.400;2024-01-16T02:19:31;13.88;;;5.85;;
23578;SDS011;11967;50.852;4.400;2024-01-16T02:21:59;18.98;;;5.63;;
23578;SDS011;11967;50.852;4.400;2024-01-16T02:24:29;12.57;;;5.30;;
23578;SDS011;11967;50.852;4.400;2024-01-16T02:26:54;16.85;;;6.47;;
23578;SDS011;11967;50.852;4.400;2024-01-16T02:29:21;17.00;;;6.20;;
23578;SDS011;11967;50.852;4.400;2024-01-16T02:31:46;16.05;;;5.72;;
23578;SDS011;11967;50.852;4.400;2024-01-16T02:34:12;18.02;;;5.68;;
23578;SDS011;11967;50.852;4.400;2024-01-16T02:36:38;17.20;;;5.93;;
23578;SDS011;11967;50.852;4.400;2024-01-16T02:39:03;18.42;;;6.38;;
23578;SDS011;11967;50.852;4.400;2024-01-16T02:41:31;17.15;;;6.22;;
23578;SDS011;11967;50.852;4.400;2024-01-16T02:43:57;12.15;;;6.13;;
23578;SDS011;11967;50.852;4.400;2024-01-16T02:46:22;15.45;;;5.97;;
23578;SDS011;11967;50.852;4.400;2024-01-16T02:48:48;16.23;;;5.82;;
23578;SDS011;11967;50.852;4.400;2024-01-16T02:51:14;12.63;;;5.47;;
23578;SDS011;11967;50.852;4.400;2024-01-16T02:53:40;16.77;;;5.40;;
23578;SDS011;11967;50.852;4.400;2024-01-16T02:56:07;16.75;;;5.30;;
23578;SDS011;11967;50.852;4.400;2024-01-16T02:58:33;15.02;;;5.50;;
23578;SDS011;11967;50.852;4.400;2024-01-16T03:00:59;16.70;;;5.57;;
23578;SDS011;11967;50.852;4.400;2024-01-16T03:03:26;16.25;;;5.70;;
23578;SDS011;11967;50.852;4.400;2024-01-16T03:05:51;22.52;;;5.68;;
23578;SDS011;11967;50.852;4.400;2024-01-16T03:08:17;15.80;;;5.57;;
23578;SDS011;11967;50.852;4.400;2024-01-16T03:10:43;16.98;;;5.72;;
23578;SDS011;11967;50.852;4.400;2024-01-16T03:13:08;20.08;;;6.43;;
23578;SDS011;11967;50.852;4.400;2024-01-16T03:15:34;14.27;;;5.72;;
23578;SDS011;11967;50.852;4.400;2024-01-16T03:18:00;15.43;;;6.03;;
23578;SDS011;11967;50.852;4.400;2024-01-16T03:20:26;11.18;;;5.00;;
23578;SDS011;11967;50.852;4.400;2024-01-16T03:22:52;16.10;;;6.18;;
23578;SDS011;11967;50.852;4.400;2024-01-16T03:25:18;16.77;;;6.70;;
23578;SDS011;11967;50.852;4.400;2024-01-16T03:27:44;17.30;;;6.07;;
23578;SDS011;11967;50.852;4.400;2024-01-16T03:30:10;15.23;;;6.20;;
23578;SDS011;11967;50.852;4.400;2024-01-16T03:32:36;17.55;;;6.25;;
23578;SDS011;11967;50.852;4.400;2024-01-16T03:35:03;13.63;;;5.30;;
23578;SDS011;11967;50.852;4.400;2024-01-16T03:37:29;20.63;;;6.38;;
23578;SDS011;11967;50.852;4.400;2024-01-16T03:39:56;16.08;;;5.97;;
23578;SDS011;11967;50.852;4.400;2024-01-16T03:42:22;15.45;;;5.60;;
23578;SDS011;11967;50.852;4.400;2024-01-16T03:44:48;18.42;;;5.65;;
23578;SDS011;11967;50.852;4.400;2024-01-16T03:47:14;13.38;;;5.10;;
23578;SDS011;11967;50.852;4.400;2024-01-16T03:49:40;17.40;;;5.38;;
23578;SDS011;11967;50.852;4.400;2024-01-16T03:52:06;12.90;;;5.80;;
23578;SDS011;11967;50.852;4.400;2024-01-16T03:54:31;13.00;;;5.15;;
23578;SDS011;11967;50.852;4.400;2024-01-16T03:56:57;18.27;;;5.57;;
23578;SDS011;11967;50.852;4.400;2024-01-16T03:59:23;20.02;;;5.63;;
23578;SDS011;11967;50.852;4.400;2024-01-16T04:01:48;13.90;;;5.95;;
23578;SDS011;11967;50.852;4.400;2024-01-16T04:04:15;18.80;;;6.07;;
23578;SDS011;11967;50.852;4.400;2024-01-16T04:06:41;21.08;;;5.90;;
23578;SDS011;11967;50.852;4.400;2024-01-16T04:09:07;16.52;;;6.10;;
23578;SDS011;11967;50.852;4.400;2024-01-16T04:11:33;18.90;;;6.55;;
23578;SDS011;11967;50.852;4.400;2024-01-16T04:13:59;15.45;;;6.35;;
23578;SDS011;11967;50.852;4.400;2024-01-16T04:16:25;13.20;;;5.95;;
23578;SDS011;11967;50.852;4.400;2024-01-16T04:18:51;18.10;;;6.50;;
23578;SDS011;11967;50.852;4.400;2024-01-16T04:21:17;16.17;;;6.07;;
23578;SDS011;11967;50.852;4.400;2024-01-16T04:23:43;15.25;;;6.35;;
23578;SDS011;11967;50.852;4.400;2024-01-16T04:26:09;12.32;;;6.18;;
23578;SDS011;11967;50.852;4.400;2024-01-16T04:28:35;18.70;;;7.35;;
23578;SDS011;11967;50.852;4.400;2024-01-16T04:31:04;17.40;;;6.45;;
23578;SDS011;11967;50.852;4.400;2024-01-16T04:33:30;15.07;;;6.38;;
23578;SDS011;11967;50.852;4.400;2024-01-16T04:35:56;17.08;;;6.68;;
23578;SDS011;11967;50.852;4.400;2024-01-16T04:38:21;20.70;;;6.95;;
23578;SDS011;11967;50.852;4.400;2024-01-16T04:40:47;15.35;;;7.10;;
23578;SDS011;11967;50.852;4.400;2024-01-16T04:43:13;18.20;;;7.07;;
23578;SDS011;11967;50.852;4.400;2024-01-16T04:45:38;15.98;;;6.45;;
23578;SDS011;11967;50.852;4.400;2024-01-16T04:48:04;20.63;;;7.15;;
23578;SDS011;11967;50.852;4.400;2024-01-16T04:50:30;12.85;;;6.88;;
23578;SDS011;11967;50.852;4.400;2024-01-16T04:52:58;14.30;;;6.63;;
23578;SDS011;11967;50.852;4.400;2024-01-16T04:55:27;16.63;;;6.70;;
23578;SDS011;11967;50.852;4.400;2024-01-16T04:57:56;16.83;;;6.72;;
23578;SDS011;11967;50.852;4.400;2024-01-16T05:00:22;15.90;;;6.60;;
23578;SDS011;11967;50.852;4.400;2024-01-16T05:02:48;19.13;;;6.25;;
23578;SDS011;11967;50.852;4.400;2024-01-16T05:05:14;15.20;;;6.85;;
23578;SDS011;11967;50.852;4.400;2024-01-16T05:07:40;16.15;;;6.25;;
23578;SDS011;11967;50.852;4.400;2024-01-16T05:10:06;14.45;;;6.07;;
23578;SDS011;11967;50.852;4.400;2024-01-16T05:12:37;19.55;;;7.13;;
23578;SDS011;11967;50.852;4.400;2024-01-16T05:15:04;23.50;;;7.05;;
23578;SDS011;11967;50.852;4.400;2024-01-16T05:17:30;14.77;;;6.10;;
23578;SDS011;11967;50.852;4.400;2024-01-16T05:19:56;13.90;;;6.18;;
23578;SDS011;11967;50.852;4.400;2024-01-16T05:22:21;15.25;;;6.80;;
23578;SDS011;11967;50.852;4.400;2024-01-16T05:24:47;17.73;;;6.90;;
23578;SDS011;11967;50.852;4.400;2024-01-16T05:27:13;17.85;;;6.65;;
23578;SDS011;11967;50.852;4.400;2024-01-16T05:29:42;14.80;;;6.40;;
23578;SDS011;11967;50.852;4.400;2024-01-16T05:32:08;15.02;;;6.47;;
23578;SDS011;11967;50.852;4.400;2024-01-16T05:34:34;16.20;;;6.65;;
23578;SDS011;11967;50.852;4.400;2024-01-16T05:36:59;15.35;;;6.93;;
23578;SDS011;11967;50.852;4.400;2024-01-16T05:39:25;15.98;;;6.95;;
23578;SDS011;11967;50.852;4.400;2024-01-16T05:41:50;20.50;;;6.78;;
23578;SDS011;11967;50.852;4.400;2024-01-16T05:44:16;21.02;;;7.28;;
23578;SDS011;11967;50.852;4.400;2024-01-16T05:46:42;16.55;;;6.57;;
23578;SDS011;11967;50.852;4.400;2024-01-16T05:49:08;19.70;;;6.97;;
23578;SDS011;11967;50.852;4.400;2024-01-16T05:51:34;17.48;;;7.18;;
23578;SDS011;11967;50.852;4.400;2024-01-16T05:53:59;18.38;;;7.32;;
23578;SDS011;11967;50.852;4.400;2024-01-16T05:56:25;19.08;;;7.70;;
23578;SDS011;11967;50.852;4.400;2024-01-16T05:58:50;18.73;;;7.85;;
23578;SDS011;11967;50.852;4.400;2024-01-16T06:01:17;19.08;;;7.50;;
23578;SDS011;11967;50.852;4.400;2024-01-16T06:03:42;17.45;;;7.95;;
23578;SDS011;11967;50.852;4.400;2024-01-16T06:06:11;19.40;;;7.07;;
23578;SDS011;11967;50.852;4.400;2024-01-16T06:08:36;21.17;;;7.40;;
23578;SDS011;11967;50.852;4.400;2024-01-16T06:11:02;12.80;;;6.60;;
23578;SDS011;11967;50.852;4.400;2024-01-16T06:13:28;19.73;;;7.28;;
23578;SDS011;11967;50.852;4.400;2024-01-16T06:15:55;15.75;;;7.65;;
23578;SDS011;11967;50.852;4.400;2024-01-16T06:18:20;19.70;;;6.97;;
23578;SDS011;11967;50.852;4.400;2024-01-16T06:20:46;17.00;;;6.82;;
23578;SDS011;11967;50.852;4.400;2024-01-16T06:23:12;16.15;;;7.22;;
23578;SDS011;11967;50.852;4.400;2024-01-16T06:25:37;16.00;;;6.82;;
23578;SDS011;11967;50.852;4.400;2024-01-16T06:28:03;23.10;;;7.78;;
23578;SDS011;11967;50.852;4.400;2024-01-16T06:30:32;21.45;;;7.47;;
23578;SDS011;11967;50.852;4.400;2024-01-16T06:33:17;17.70;;;7.32;;
23578;SDS011;11967;50.852;4.400;2024-01-16T06:35:43;23.20;;;8.15;;
23578;SDS011;11967;50.852;4.400;2024-01-16T06:38:08;20.17;;;7.95;;
23578;SDS011;11967;50.852;4.400;2024-01-16T06:40:34;20.75;;;7.32;;
23578;SDS011;11967;50.852;4.400;2024-01-16T06:43:01;14.70;;;6.72;;
23578;SDS011;11967;50.852;4.400;2024-01-16T06:45:31;16.27;;;7.13;;
23578;SDS011;11967;50.852;4.400;2024-01-16T06:47:56;20.83;;;7.40;;
23578;SDS011;11967;50.852;4.400;2024-01-16T06:50:22;24.63;;;7.65;;
23578;SDS011;11967;50.852;4.400;2024-01-16T06:52:49;16.13;;;7.00;;
23578;SDS011;11967;50.852;4.400;2024-01-16T06:55:15;17.08;;;7.60;;
23578;SDS011;11967;50.852;4.400;2024-01-16T06:57:40;14.77;;;7.30;;
23578;SDS011;11967;50.852;4.400;2024-01-16T07:00:06;20.02;;;7.20;;
23578;SDS011;11967;50.852;4.400;2024-01-16T07:02:32;24.33;;;7.53;;
23578;SDS011;11967;50.852;4.400;2024-01-16T07:04:58;18.85;;;7.57;;
23578;SDS011;11967;50.852;4.400;2024-01-16T07:07:24;22.38;;;7.78;;
23578;SDS011;11967;50.852;4.400;2024-01-16T07:09:49;18.38;;;7.45;;
23578;SDS011;11967;50.852;4.400;2024-01-16T07:12:15;16.73;;;7.20;;
23578;SDS011;11967;50.852;4.400;2024-01-16T07:14:44;14.40;;;6.93;;
23578;SDS011;11967;50.852;4.400;2024-01-16T07:17:09;15.80;;;6.88;;
23578;SDS011;11967;50.852;4.400;2024-01-16T07:19:35;15.32;;;7.13;;
23578;SDS011;11967;50.852;4.400;2024-01-16T07:22:01;19.80;;;6.95;;
23578;SDS011;11967;50.852;4.400;2024-01-16T07:24:26;15.98;;;6.78;;
23578;SDS011;11967;50.852;4.400;2024-01-16T07:26:52;16.45;;;6.65;;
23578;SDS011;11967;50.852;4.400;2024-01-16T07:29:19;18.30;;;7.10;;
23578;SDS011;11967;50.852;4.400;2024-01-16T07:31:46;16.33;;;6.03;;
23578;SDS011;11967;50.852;4.400;2024-01-16T07:34:14;19.15;;;6.03;;
23578;SDS011;11967;50.852;4.400;2024-01-16T07:36:45;14.45;;;6.32;;
23578;SDS011;11967;50.852;4.400;2024-01-16T07:39:10;18.70;;;7.00;;
23578;SDS011;11967;50.852;4.400;2024-01-16T07:41:36;20.58;;;6.43;;
23578;SDS011;11967;50.852;4.400;2024-01-16T07:44:02;16.75;;;6.20;;
23578;SDS011;11967;50.852;4.400;2024-01-16T07:46:27;15.25;;;6.53;;
23578;SDS011;11967;50.852;4.400;2024-01-16T07:48:53;14.15;;;6.18;;
23578;SDS011;11967;50.852;4.400;2024-01-16T07:51:19;19.42;;;6.35;;
23578;SDS011;11967;50.852;4.400;2024-01-16T07:53:45;18.05;;;6.47;;
23578;SDS011;11967;50.852;4.400;2024-01-16T07:56:11;20.60;;;6.53;;
23578;SDS011;11967;50.852;4.400;2024-01-16T07:58:37;15.52;;;6.32;;
23578;SDS011;11967;50.852;4.400;2024-01-16T08:01:02;14.25;;;6.45;;
23578;SDS011;11967;50.852;4.400;2024-01-16T08:03:28;17.35;;;6.30;;
23578;SDS011;11967;50.852;4.400;2024-01-16T08:05:54;19.17;;;6.53;;
23578;SDS011;11967;50.852;4.400;2024-01-16T08:08:20;16.20;;;6.53;;
23578;SDS011;11967;50.852;4.400;2024-01-16T08:10:46;17.05;;;6.95;;
23578;SDS011;11967;50.852;4.400;2024-01-16T08:13:12;17.17;;;5.80;;
23578;SDS011;11967;50.852;4.400;2024-01-16T08:15:38;17.70;;;6.38;;
23578;SDS011;11967;50.852;4.400;2024-01-16T08:18:03;17.35;;;6.15;;
23578;SDS011;11967;50.852;4.400;2024-01-16T08:20:29;16.33;;;6.15;;
23578;SDS011;11967;50.852;4.400;2024-01-16T08:22:55;13.63;;;5.82;;
23578;SDS011;11967;50.852;4.400;2024-01-16T08:25:21;16.88;;;5.75;;
23578;SDS011;11967;50.852;4.400;2024-01-16T08:27:46;21.52;;;6.28;;
23578;SDS011;11967;50.852;4.400;2024-01-16T08:30:12;16.85;;;6.03;;
23578;SDS011;11967;50.852;4.400;2024-01-16T08:32:38;19.05;;;6.45;;
23578;SDS011;11967;50.852;4.400;2024-01-16T08:35:03;16.77;;;5.72;;
23578;SDS011;11967;50.852;4.400;2024-01-16T08:37:31;17.65;;;5.53;;
23578;SDS011;11967;50.852;4.400;2024-01-16T08:39:57;15.25;;;6.07;;
23578;SDS011;11967;50.852;4.400;2024-01-16T08:42:23;15.13;;;5.60;;
23578;SDS011;11967;50.852;4.400;2024-01-16T08:44:49;15.57;;;5.50;;
23578;SDS011;11967;50.852;4.400;2024-01-16T08:47:15;19.33;;;6.00;;
23578;SDS011;11967;50.852;4.400;2024-01-16T08:49:40;17.55;;;5.88;;
23578;SDS011;11967;50.852;4.400;2024-01-16T08:52:06;20.25;;;5.93;;
23578;SDS011;11967;50.852;4.400;2024-01-16T08:54:32;12.95;;;5.47;;
23578;SDS011;11967;50.852;4.400;2024-01-16T08:56:58;13.10;;;5.72;;
23578;SDS011;11967;50.852;4.400;2024-01-16T08:59:23;16.25;;;5.07;;
23578;SDS011;11967;50.852;4.400;2024-01-16T09:01:49;14.40;;;5.72;;
23578;SDS011;11967;50.852;4.400;2024-01-16T09:04:15;15.85;;;5.40;;
23578;SDS011;11967;50.852;4.400;2024-01-16T09:06:41;15.90;;;5.95;;
23578;SDS011;11967;50.852;4.400;2024-01-16T09:09:07;14.40;;;5.18;;
23578;SDS011;11967;50.852;4.400;2024-01-16T09:11:34;17.80;;;5.55;;
23578;SDS011;11967;50.852;4.400;2024-01-16T09:13:59;13.20;;;5.30;;
23578;SDS011;11967;50.852;4.400;2024-01-16T09:16:25;18.75;;;5.65;;
23578;SDS011;11967;50.852;4.400;2024-01-16T09:18:51;15.18;;;5.38;;
23578;SDS011;11967;50.852;4.400;2024-01-16T09:21:16;18.33;;;5.70;;
23578;SDS011;11967;50.852;4.400;2024-01-16T09:23:42;16.60;;;5.70;;
23578;SDS011;11967;50.852;4.400;2024-01-16T09:26:09;18.92;;;6.22;;
23578;SDS011;11967;50.852;4.400;2024-01-16T09:28:35;17.08;;;5.93;;
23578;SDS011;11967;50.852;4.400;2024-01-16T09:31:01;15.15;;;5.68;;
23578;SDS011;11967;50.852;4.400;2024-01-16T09:33:27;20.05;;;5.35;;
23578;SDS011;11967;50.852;4.400;2024-01-16T09:35:53;12.55;;;5.00;;
23578;SDS011;11967;50.852;4.400;2024-01-16T09:38:18;13.40;;;4.90;;
23578;SDS011;11967;50.852;4.400;2024-01-16T09:40:44;14.40;;;5.78;;
23578;SDS011;11967;50.852;4.400;2024-01-16T09:43:11;14.45;;;5.22;;
23578;SDS011;11967;50.852;4.400;2024-01-16T09:45:37;11.73;;;4.70;;
23578;SDS011;11967;50.852;4.400;2024-01-16T09:48:03;16.45;;;5.32;;
23578;SDS011;11967;50.852;4.400;2024-01-16T09:50:30;17.17;;;5.47;;
23578;SDS011;11967;50.852;4.400;2024-01-16T09:52:56;13.77;;;5.45;;
23578;SDS011;11967;50.852;4.400;2024-01-16T09:55:23;15.23;;;5.05;;
23578;SDS011;11967;50.852;4.400;2024-01-16T09:57:49;11.68;;;5.45;;
23578;SDS011;11967;50.852;4.400;2024-01-16T10:00:18;17.48;;;5.18;;
23578;SDS011;11967;50.852;4.400;2024-01-16T10:02:44;14.23;;;4.82;;
23578;SDS011;11967;50.852;4.400;2024-01-16T10:05:11;16.25;;;5.20;;
23578;SDS011;11967;50.852;4.400;2024-01-16T10:07:38;16.77;;;5.55;;
23578;SDS011;11967;50.852;4.400;2024-01-16T10:10:05;11.88;;;4.97;;
23578;SDS011;11967;50.852;4.400;2024-01-16T10:12:35;18.98;;;5.43;;
23578;SDS011;11967;50.852;4.400;2024-01-16T10:15:02;12.45;;;5.00;;
23578;SDS011;11967;50.852;4.400;2024-01-16T10:17:36;15.30;;;5.10;;
23578;SDS011;11967;50.852;4.400;2024-01-16T10:20:09;13.85;;;4.80;;
23578;SDS011;11967;50.852;4.400;2024-01-16T10:25:17;12.20;;;4.82;;
23578;SDS011;11967;50.852;4.400;2024-01-16T10:27:45;12.43;;;5.18;;
23578;SDS011;11967;50.852;4.400;2024-01-16T10:30:11;13.88;;;5.20;;
23578;SDS011;11967;50.852;4.400;2024-01-16T10:32:38;12.80;;;5.13;;
23578;SDS011;11967;50.852;4.400;2024-01-16T10:35:12;15.02;;;5.00;;
23578;SDS011;11967;50.852;4.400;2024-01-16T10:37:46;15.93;;;5.65;;
23578;SDS011;11967;50.852;4.400;2024-01-16T10:40:16;13.55;;;4.65;;
23578;SDS011;11967;50.852;4.400;2024-01-16T10:42:56;15.25;;;5.00;;
23578;SDS011;11967;50.852;4.400;2024-01-16T10:45:23;12.85;;;5.13;;
23578;SDS011;11967;50.852;4.400;2024-01-16T10:47:49;9.55;;;4.80;;
23578;SDS011;11967;50.852;4.400;2024-01-16T10:50:25;14.70;;;4.68;;
23578;SDS011;11967;50.852;4.400;2024-01-16T10:52:51;15.85;;;4.47;;
23578;SDS011;11967;50.852;4.400;2024-01-16T10:55:20;21.45;;;4.93;;
23578;SDS011;11967;50.852;4.400;2024-01-16T10:57:50;12.73;;;4.93;;
23578;SDS011;11967;50.852;4.400;2024-01-16T11:00:20;10.57;;;4.43;;
23578;SDS011;11967;50.852;4.400;2024-01-16T11:02:51;12.38;;;4.07;;
23578;SDS011;11967;50.852;4.400;2024-01-16T11:05:25;15.60;;;4.50;;
23578;SDS011;11967;50.852;4.400;2024-01-16T11:07:55;16.25;;;4.75;;
23578;SDS011;11967;50.852;4.400;2024-01-16T11:10:23;12.35;;;4.65;;
23578;SDS011;11967;50.852;4.400;2024-01-16T11:12:49;14.52;;;4.25;;
23578;SDS011;11967;50.852;4.400;2024-01-16T11:15:17;13.57;;;4.90;;
23578;SDS011;11967;50.852;4.400;2024-01-16T11:17:44;13.02;;;5.05;;
23578;SDS011;11967;50.852;4.400;2024-01-16T11:20:11;16.88;;;4.70;;
23578;SDS011;11967;50.852;4.400;2024-01-16T11:22:39;16.45;;;5.30;;
23578;SDS011;11967;50.852;4.400;2024-01-16T11:27:40;14.93;;;4.60;;
23578;SDS011;11967;50.852;4.400;2024-01-16T11:30:07;18.20;;;4.65;;
23578;SDS011;11967;50.852;4.400;2024-01-16T11:32:35;17.27;;;4.95;;
23578;SDS011;11967;50.852;4.400;2024-01-16T11:35:02;13.10;;;5.68;;
23578;SDS011;11967;50.852;4.400;2024-01-16T11:37:32;13.88;;;4.90;;
23578;SDS011;11967;50.852;4.400;2024-01-16T11:42:46;16.08;;;5.28;;
23578;SDS011;11967;50.852;4.400;2024-01-16T11:50:37;11.90;;;4.32;;
23578;SDS011;11967;50.852;4.400;2024-01-16T11:53:03;10.43;;;5.13;;
23578;SDS011;11967;50.852;4.400;2024-01-16T11:55:30;13.43;;;5.25;;
23578;SDS011;11967;50.852;4.400;2024-01-16T12:00:34;12.05;;;4.78;;
23578;SDS011;11967;50.852;4.400;2024-01-16T12:03:02;11.95;;;4.97;;
23578;SDS011;11967;50.852;4.400;2024-01-16T12:05:29;16.80;;;6.25;;
23578;SDS011;11967;50.852;4.400;2024-01-16T12:07:54;11.75;;;5.30;;
23578;SDS011;11967;50.852;4.400;2024-01-16T12:10:21;12.27;;;5.20;;
23578;SDS011;11967;50.852;4.400;2024-01-16T12:12:48;10.50;;;4.95;;
23578;SDS011;11967;50.852;4.400;2024-01-16T12:15:17;9.38;;;4.70;;
23578;SDS011;11967;50.852;4.400;2024-01-16T12:18:00;11.95;;;4.30;;
23578;SDS011;11967;50.852;4.400;2024-01-16T12:20:29;9.70;;;3.90;;
23578;SDS011;11967;50.852;4.400;2024-01-16T12:25:34;15.10;;;3.92;;
23578;SDS011;11967;50.852;4.400;2024-01-16T12:28:04;17.13;;;4.40;;
23578;SDS011;11967;50.852;4.400;2024-01-16T12:30:32;10.13;;;4.45;;
23578;SDS011;11967;50.852;4.400;2024-01-16T12:33:02;13.13;;;4.22;;
23578;SDS011;11967;50.852;4.400;2024-01-16T12:35:39;14.38;;;4.63;;
23578;SDS011;11967;50.852;4.400;2024-01-16T12:38:06;11.32;;;4.30;;
23578;SDS011;11967;50.852;4.400;2024-01-16T12:40:42;13.85;;;4.65;;
23578;SDS011;11967;50.852;4.400;2024-01-16T12:43:17;13.02;;;4.03;;
23578;SDS011;11967;50.852;4.400;2024-01-16T12:45:43;10.93;;;3.70;;
23578;SDS011;11967;50.852;4.400;2024-01-16T12:48:10;12.35;;;4.32;;
23578;SDS011;11967;50.852;4.400;2024-01-16T12:50:36;11.68;;;4.22;;
23578;SDS011;11967;50.852;4.400;2024-01-16T12:53:03;11.77;;;3.75;;
23578;SDS011;11967;50.852;4.400;2024-01-16T12:55:33;15.10;;;4.43;;
23578;SDS011;11967;50.852;4.400;2024-01-16T13:03:15;12.75;;;4.35;;
23578;SDS011;11967;50.852;4.400;2024-01-16T13:05:42;11.52;;;4.43;;
23578;SDS011;11967;50.852;4.400;2024-01-16T13:08:08;12.35;;;4.63;;
23578;SDS011;11967;50.852;4.400;2024-01-16T13:10:34;10.75;;;4.65;;
23578;SDS011;11967;50.852;4.400;2024-01-16T13:13:16;12.20;;;4.30;;
23578;SDS011;11967;50.852;4.400;2024-01-16T13:15:45;12.95;;;4.60;;
23578;SDS011;11967;50.852;4.400;2024-01-16T13:18:24;10.25;;;4.60;;
23578;SDS011;11967;50.852;4.400;2024-01-16T13:20:51;13.63;;;4.80;;
23578;SDS011;11967;50.852;4.400;2024-01-16T13:23:19;11.60;;;4.47;;
23578;SDS011;11967;50.852;4.400;2024-01-16T13:25:45;11.88;;;4.50;;
23578;SDS011;11967;50.852;4.400;2024-01-16T13:28:12;10.10;;;4.40;;
23578;SDS011;11967;50.852;4.400;2024-01-16T13:30:39;12.35;;;4.68;;
23578;SDS011;11967;50.852;4.400;2024-01-16T13:33:08;14.90;;;5.28;;
23578;SDS011;11967;50.852;4.400;2024-01-16T13:35:35;10.05;;;4.18;;
23578;SDS011;11967;50.852;4.400;2024-01-16T13:38:04;9.63;;;4.22;;
23578;SDS011;11967;50.852;4.400;2024-01-16T13:40:30;9.77;;;3.70;;
23578;SDS011;11967;50.852;4.400;2024-01-16T13:42:56;8.00;;;3.55;;
23578;SDS011;11967;50.852;4.400;2024-01-16T13:45:22;12.43;;;4.43;;
23578;SDS011;11967;50.852;4.400;2024-01-16T13:47:48;14.27;;;4.18;;
23578;SDS011;11967;50.852;4.400;2024-01-16T13:50:13;14.00;;;4.47;;
23578;SDS011;11967;50.852;4.400;2024-01-16T13:52:39;9.95;;;3.83;;
23578;SDS011;11967;50.852;4.400;2024-01-16T13:55:05;8.98;;;3.60;;
23578;SDS011;11967;50.852;4.400;2024-01-16T13:57:32;12.00;;;4.15;;
23578;SDS011;11967;50.852;4.400;2024-01-16T13:59:59;8.00;;;2.92;;
23578;SDS011;11967;50.852;4.400;2024-01-16T14:02:25;16.63;;;4.18;;
23578;SDS011;11967;50.852;4.400;2024-01-16T14:04:51;8.50;;;3.40;;
23578;SDS011;11967;50.852;4.400;2024-01-16T14:07:17;11.48;;;4.25;;
23578;SDS011;11967;50.852;4.400;2024-01-16T14:09:43;11.43;;;3.78;;
23578;SDS011;11967;50.852;4.400;2024-01-16T14:12:11;8.68;;;3.85;;
23578;SDS011;11967;50.852;4.400;2024-01-16T14:14:37;12.77;;;3.83;;
23578;SDS011;11967;50.852;4.400;2024-01-16T14:17:05;11.38;;;3.70;;
23578;SDS011;11967;50.852;4.400;2024-01-16T14:19:31;12.25;;;3.50;;
23578;SDS011;11967;50.852;4.400;2024-01-16T14:21:59;11.35;;;3.38;;
23578;SDS011;11967;50.852;4.400;2024-01-16T14:24:25;13.30;;;3.28;;
23578;SDS011;11967;50.852;4.400;2024-01-16T14:26:51;9.35;;;3.15;;
23578;SDS011;11967;50.852;4.400;2024-01-16T14:29:16;12.20;;;3.47;;
23578;SDS011;11967;50.852;4.400;2024-01-16T14:31:43;12.48;;;3.65;;
23578;SDS011;11967;50.852;4.400;2024-01-16T14:34:13;9.35;;;3.55;;
23578;SDS011;11967;50.852;4.400;2024-01-16T14:36:39;8.00;;;3.65;;
23578;SDS011;11967;50.852;4.400;2024-01-16T14:39:06;10.10;;;3.83;;
23578;SDS011;11967;50.852;4.400;2024-01-16T14:41:38;12.30;;;4.60;;
23578;SDS011;11967;50.852;4.400;2024-01-16T14:44:04;12.95;;;4.60;;
23578;SDS011;11967;50.852;4.400;2024-01-16T14:46:31;14.93;;;5.90;;
23578;SDS011;11967;50.852;4.400;2024-01-16T14:48:58;20.08;;;7.10;;
23578;SDS011;11967;50.852;4.400;2024-01-16T14:51:23;11.23;;;4.75;;
23578;SDS011;11967;50.852;4.400;2024-01-16T14:53:49;11.43;;;4.93;;
23578;SDS011;11967;50.852;4.400;2024-01-16T14:56:14;15.35;;;5.50;;